Time;durP1;ratioP1;P1;durP2;ratioP2;P2;SDS_P1;SDS_P2;PMS_P1;PMS_P2;Temp;Humidity;BMP_temperature;BMP_pressure;BME280_temperature;BME280_humidity;BME280_pressure;Samples;Min_cycle;Max_cycle;Signal;HPM_P1;HPM_P2
2022/10/23 00:01:27;;;;;;;;;;;11.40;99.90;;;;;;5061563;28;19932;-58
2022/10/23 00:03:56;;;;;;;;;;;11.40;99.90;;;;;;5060250;28;19934;-58
2022/10/23 00:06:25;;;;;;;;;;;11.30;99.90;;;;;;5061489;28;19935;-58
2022/10/23 00:08:51;;;;;;;;;;;11.30;99.90;;;;;;5062123;28;20457;-58
2022/10/23 00:11:19;;;;;;;;;;;11.30;99.90;;;;;;5060342;28;21723;-58
2022/10/23 00:13:46;;;;;;;;;;;11.30;99.90;;;;;;5060695;28;20430;-58
2022/10/23 00:16:13;;;;;;;;;;;11.30;99.90;;;;;;5060949;28;19935;-58
2022/10/23 00:18:40;;;;;;;;;;;11.30;99.90;;;;;;5060957;28;19936;-58
2022/10/23 00:21:07;;;;;;;;;;;11.30;99.90;;;;;;5060512;28;19940;-58
2022/10/23 00:23:35;;;;;;;;;;;11.40;99.90;;;;;;5060909;28;19932;-58
2022/10/23 00:26:02;;;;;;;;;;;11.40;99.90;;;;;;5060358;28;19968;-58
2022/10/23 00:28:28;;;;;;;;;;;11.40;99.90;;;;;;5061135;28;19993;-58
2022/10/23 00:30:55;;;;;;;;;;;11.40;99.90;;;;;;5061731;28;19940;-58
2022/10/23 00:33:22;;;;;;;;;;;11.50;99.90;;;;;;5061467;28;19928;-58
2022/10/23 00:35:48;;;;;;;;;;;11.50;99.90;;;;;;5061196;28;20637;-59
2022/10/23 00:38:15;;;;;;;;;;;11.50;99.90;;;;;;5061153;28;19929;-59
2022/10/23 00:40:45;;;;;;;;;;;11.60;99.90;;;;;;5061177;28;19944;-58
2022/10/23 00:43:16;;;;;;;;;;;11.60;99.90;;;;;;5060883;28;20444;-59
2022/10/23 00:45:43;;;;;;;;;;;11.70;99.90;;;;;;5060076;28;19928;-58
2022/10/23 00:48:10;;;;;;;;;;;11.70;99.90;;;;;;5061061;28;20024;-58
2022/10/23 00:50:37;;;;;;;;;;;11.80;99.90;;;;;;5061614;28;19932;-57
2022/10/23 00:53:04;;;;;;;;;;;11.80;99.90;;;;;;5060892;28;19936;-58
2022/10/23 00:55:32;;;;;;;;;;;11.80;99.90;;;;;;5061148;28;19928;-58
2022/10/23 00:58:00;;;;;;;;;;;11.80;99.90;;;;;;5061022;28;19939;-58
2022/10/23 01:00:28;;;;;;;;;;;11.80;99.90;;;;;;5061197;28;21906;-58
2022/10/23 01:02:55;;;;;;;;;;;11.80;99.90;;;;;;5061206;28;19929;-58
2022/10/23 01:05:24;;;;;;;;;;;11.80;99.90;;;;;;5061254;28;19928;-58
2022/10/23 01:07:52;;;;;;;;;;;11.80;99.90;;;;;;5061015;28;19929;-58
2022/10/23 01:10:23;;;;;;;;;;;11.90;99.90;;;;;;5061316;28;19940;-58
2022/10/23 01:12:53;;;;;;;;;;;11.90;99.90;;;;;;5059702;28;20781;-58
2022/10/23 01:15:23;;;;;;;;;;;11.90;99.90;;;;;;5059353;28;19935;-58
2022/10/23 01:17:51;;;;;;;;;;;11.90;99.90;;;;;;5059974;28;19935;-59
2022/10/23 01:20:29;;;;;;;;;;;11.90;99.90;;;;;;5060590;28;19932;-58
2022/10/23 01:23:13;;;;;;;;;;;11.80;99.90;;;;;;5060627;28;20055;-59
2022/10/23 01:25:55;;;;;;;;;;;11.70;99.90;;;;;;5059653;28;19928;-59
2022/10/23 01:28:25;;;;;;;;;;;11.60;99.90;;;;;;5058522;28;19939;-58
2022/10/23 01:30:53;;;;;;;;;;;11.40;99.90;;;;;;5060589;28;19966;-58
2022/10/23 01:33:24;;;;;;;;;;;11.40;99.90;;;;;;5060261;28;20513;-59
2022/10/23 01:35:52;;;;;;;;;;;11.30;99.90;;;;;;5060739;28;20384;-58
2022/10/23 01:38:22;;;;;;;;;;;11.30;99.90;;;;;;5060362;28;19929;-58
2022/10/23 01:40:51;;;;;;;;;;;11.20;99.90;;;;;;5060047;28;19939;-58
2022/10/23 01:43:19;;;;;;;;;;;11.20;99.90;;;;;;5059618;28;19929;-58
2022/10/23 01:45:49;;;;;;;;;;;11.20;99.90;;;;;;5059922;28;19935;-58
2022/10/23 01:48:19;;;;;;;;;;;11.10;99.90;;;;;;5059731;28;19929;-58
2022/10/23 01:50:46;;;;;;;;;;;11.10;99.90;;;;;;5060401;28;19932;-58
2022/10/23 01:53:13;;;;;;;;;;;11.10;99.90;;;;;;5060263;28;20375;-58
2022/10/23 01:55:40;;;;;;;;;;;11.00;99.90;;;;;;5059681;28;20046;-58
2022/10/23 01:58:07;;;;;;;;;;;11.10;99.90;;;;;;5060113;28;19932;-58
2022/10/23 02:00:34;;;;;;;;;;;11.00;99.90;;;;;;5060079;28;20023;-58
2022/10/23 02:03:03;;;;;;;;;;;11.00;99.90;;;;;;5059514;28;20342;-59
2022/10/23 02:05:30;;;;;;;;;;;11.00;99.90;;;;;;5059883;28;19939;-59
2022/10/23 02:07:57;;;;;;;;;;;11.00;99.90;;;;;;5060635;28;20451;-58
2022/10/23 02:10:25;;;;;;;;;;;11.00;99.90;;;;;;5059780;28;19939;-58
2022/10/23 02:12:56;;;;;;;;;;;11.00;99.90;;;;;;5060000;28;20049;-58
2022/10/23 02:15:24;;;;;;;;;;;11.00;99.90;;;;;;5059707;28;20459;-58
2022/10/23 02:17:57;;;;;;;;;;;10.90;99.90;;;;;;5058815;28;19929;-58
2022/10/23 02:20:28;;;;;;;;;;;10.90;99.90;;;;;;5058784;28;21704;-58
2022/10/23 02:22:57;;;;;;;;;;;10.90;99.90;;;;;;5058096;28;20499;-58
2022/10/23 02:25:27;;;;;;;;;;;11.00;99.90;;;;;;5059907;28;19935;-59
2022/10/23 02:27:56;;;;;;;;;;;11.00;99.90;;;;;;5064248;28;19935;-58
2022/10/23 02:30:23;;;;;;;;;;;11.00;99.90;;;;;;5066106;28;19933;-58
2022/10/23 02:32:51;;;;;;;;;;;11.00;99.90;;;;;;5066300;28;19928;-58
2022/10/23 02:35:18;;;;;;;;;;;11.00;99.90;;;;;;5066605;28;19933;-58
2022/10/23 02:37:53;;;;;;;;;;;11.00;99.90;;;;;;5065236;28;19936;-58
2022/10/23 02:40:20;;;;;;;;;;;11.00;99.90;;;;;;5066767;28;19933;-58
2022/10/23 02:42:50;;;;;;;;;;;10.90;99.90;;;;;;5066123;28;20388;-58
2022/10/23 02:45:19;;;;;;;;;;;10.90;99.90;;;;;;5065726;28;20396;-58
2022/10/23 02:47:51;;;;;;;;;;;10.90;99.90;;;;;;5065856;28;20023;-58
2022/10/23 02:50:21;;;;;;;;;;;10.90;99.90;;;;;;5065045;28;19939;-58
2022/10/23 02:52:52;;;;;;;;;;;10.80;99.90;;;;;;5065565;28;19928;-58
2022/10/23 02:55:28;;;;;;;;;;;10.80;99.90;;;;;;5066568;28;19928;-58
2022/10/23 02:57:56;;;;;;;;;;;10.80;99.90;;;;;;5065655;28;19929;-58
2022/10/23 03:00:24;;;;;;;;;;;10.80;99.90;;;;;;5065180;28;20413;-58
2022/10/23 03:02:55;;;;;;;;;;;10.80;99.90;;;;;;5066539;28;20413;-58
2022/10/23 03:05:23;;;;;;;;;;;10.80;99.90;;;;;;5065050;28;19936;-58
2022/10/23 03:07:50;;;;;;;;;;;10.80;99.90;;;;;;5065429;28;19929;-58
2022/10/23 03:10:16;;;;;;;;;;;10.80;99.90;;;;;;5065918;28;20873;-58
2022/10/23 03:12:45;;;;;;;;;;;10.90;99.90;;;;;;5066063;28;19928;-58
2022/10/23 03:15:12;;;;;;;;;;;10.90;99.90;;;;;;5065898;28;19928;-58
2022/10/23 03:17:39;;;;;;;;;;;10.90;99.90;;;;;;5066102;28;19929;-58
2022/10/23 03:20:06;;;;;;;;;;;10.90;99.90;;;;;;5064851;28;19932;-58
2022/10/23 03:22:33;;;;;;;;;;;10.90;99.90;;;;;;5065911;28;19929;-58
2022/10/23 03:25:00;;;;;;;;;;;11.00;99.90;;;;;;5066155;28;19929;-59
2022/10/23 03:27:27;;;;;;;;;;;11.10;99.90;;;;;;5065572;28;19935;-58
2022/10/23 03:29:55;;;;;;;;;;;11.20;99.90;;;;;;5065264;28;20591;-58
2022/10/23 03:32:21;;;;;;;;;;;11.30;99.90;;;;;;5064732;28;19951;-58
2022/10/23 03:34:48;;;;;;;;;;;11.40;99.90;;;;;;5065356;28;20243;-58
2022/10/23 03:37:14;;;;;;;;;;;11.40;99.90;;;;;;5066079;28;20058;-58
2022/10/23 03:39:41;;;;;;;;;;;11.50;99.90;;;;;;5062098;28;19933;-58
2022/10/23 03:42:08;;;;;;;;;;;11.50;99.90;;;;;;5062613;28;20023;-59
2022/10/23 03:44:34;;;;;;;;;;;11.40;99.90;;;;;;5062143;28;19928;-58
2022/10/23 03:47:02;;;;;;;;;;;11.50;99.90;;;;;;5061663;28;19929;-58
2022/10/23 03:49:29;;;;;;;;;;;11.40;99.90;;;;;;5061534;28;21704;-58
2022/10/23 03:51:56;;;;;;;;;;;11.40;99.90;;;;;;5062014;28;20426;-58
2022/10/23 03:54:23;;;;;;;;;;;11.40;99.90;;;;;;5062303;28;19928;-58
2022/10/23 03:56:50;;;;;;;;;;;11.50;99.90;;;;;;5062212;28;20458;-58
2022/10/23 03:59:17;;;;;;;;;;;11.50;99.90;;;;;;5062215;28;19932;-59
2022/10/23 04:01:44;;;;;;;;;;;11.60;99.90;;;;;;5061512;28;19928;-58
2022/10/23 04:04:12;;;;;;;;;;;11.60;99.90;;;;;;5061902;28;19928;-58
2022/10/23 04:06:39;;;;;;;;;;;11.70;99.90;;;;;;5061566;28;19929;-58
2022/10/23 04:09:05;;;;;;;;;;;11.70;99.90;;;;;;5061169;28;19936;-58
2022/10/23 04:11:32;;;;;;;;;;;11.70;99.90;;;;;;5061452;28;19939;-58
2022/10/23 04:13:59;;;;;;;;;;;11.80;99.90;;;;;;5061529;28;19929;-58
2022/10/23 04:16:26;;;;;;;;;;;11.70;99.90;;;;;;5060490;28;19928;-58
2022/10/23 04:18:52;;;;;;;;;;;11.60;99.90;;;;;;5061892;28;19939;-58
2022/10/23 04:21:20;;;;;;;;;;;11.60;99.90;;;;;;5061903;28;21363;-58
2022/10/23 04:23:47;;;;;;;;;;;11.50;99.90;;;;;;5061530;28;20702;-58
2022/10/23 04:26:13;;;;;;;;;;;11.50;99.90;;;;;;5062304;28;20019;-58
2022/10/23 04:28:40;;;;;;;;;;;11.50;99.90;;;;;;5061290;28;19939;-58
2022/10/23 04:31:07;;;;;;;;;;;11.50;99.90;;;;;;5061681;28;19940;-58
2022/10/23 04:33:33;;;;;;;;;;;11.50;99.90;;;;;;5062185;28;19987;-58
2022/10/23 04:36:00;;;;;;;;;;;11.40;99.90;;;;;;5061255;28;20412;-58
2022/10/23 04:38:28;;;;;;;;;;;11.50;99.90;;;;;;5061376;28;19939;-58
2022/10/23 04:40:55;;;;;;;;;;;11.40;99.90;;;;;;5061836;28;19928;-58
2022/10/23 04:43:21;;;;;;;;;;;11.40;99.90;;;;;;5061120;28;19929;-58
2022/10/23 04:45:48;;;;;;;;;;;11.30;99.90;;;;;;5060654;28;19929;-58
2022/10/23 04:48:15;;;;;;;;;;;11.40;99.90;;;;;;5061133;28;19939;-58
2022/10/23 04:50:41;;;;;;;;;;;11.40;99.90;;;;;;5060023;28;19928;-58
2022/10/23 04:53:08;;;;;;;;;;;11.50;99.90;;;;;;5061512;28;20680;-58
2022/10/23 04:55:36;;;;;;;;;;;11.40;99.90;;;;;;5061389;28;19928;-58
2022/10/23 04:58:03;;;;;;;;;;;11.50;99.90;;;;;;5060592;28;19939;-58
2022/10/23 05:00:30;;;;;;;;;;;11.50;99.90;;;;;;5060695;28;19933;-58
2022/10/23 05:02:59;;;;;;;;;;;11.50;99.90;;;;;;5061153;28;19929;-58
2022/10/23 05:05:26;;;;;;;;;;;11.50;99.90;;;;;;5060962;28;19939;-58
2022/10/23 05:07:52;;;;;;;;;;;11.40;99.90;;;;;;5060965;28;20396;-58
2022/10/23 05:10:19;;;;;;;;;;;11.40;99.90;;;;;;5061491;28;20477;-58
2022/10/23 05:12:47;;;;;;;;;;;11.40;99.90;;;;;;5060364;28;19932;-58
2022/10/23 05:15:14;;;;;;;;;;;11.40;99.90;;;;;;5060421;28;20391;-57
2022/10/23 05:17:42;;;;;;;;;;;11.40;99.90;;;;;;5060229;28;20371;-58
2022/10/23 05:20:11;;;;;;;;;;;11.50;99.90;;;;;;5060482;28;21760;-58
2022/10/23 05:22:39;;;;;;;;;;;11.50;99.90;;;;;;5060716;28;20081;-58
2022/10/23 05:25:06;;;;;;;;;;;11.40;99.90;;;;;;5059861;28;20689;-58
2022/10/23 05:27:33;;;;;;;;;;;11.40;99.90;;;;;;5060745;28;19932;-58
2022/10/23 05:30:01;;;;;;;;;;;11.40;99.90;;;;;;5060366;28;19928;-58
2022/10/23 05:32:29;;;;;;;;;;;11.40;99.90;;;;;;5060965;28;20422;-58
2022/10/23 05:34:56;;;;;;;;;;;11.30;99.90;;;;;;5060591;28;20428;-58
2022/10/23 05:37:22;;;;;;;;;;;11.30;99.90;;;;;;5059981;28;19932;-58
2022/10/23 05:39:49;;;;;;;;;;;11.20;99.90;;;;;;5060056;28;19928;-58
2022/10/23 05:42:16;;;;;;;;;;;11.20;99.90;;;;;;5060252;28;20367;-58
2022/10/23 05:44:42;;;;;;;;;;;11.20;99.90;;;;;;5059768;28;20249;-58
2022/10/23 05:47:10;;;;;;;;;;;11.20;99.90;;;;;;5060165;28;20423;-58
2022/10/23 05:49:37;;;;;;;;;;;11.20;99.90;;;;;;5060292;28;19929;-58
2022/10/23 05:52:04;;;;;;;;;;;11.20;99.90;;;;;;5060129;28;19935;-59
2022/10/23 05:54:30;;;;;;;;;;;11.20;99.90;;;;;;5059530;28;19935;-58
2022/10/23 05:56:57;;;;;;;;;;;11.20;99.90;;;;;;5060159;28;19933;-58
2022/10/23 05:59:24;;;;;;;;;;;11.20;99.90;;;;;;5060167;28;20641;-58
2022/10/23 06:01:51;;;;;;;;;;;11.30;99.90;;;;;;5059470;28;20273;-58
2022/10/23 06:04:19;;;;;;;;;;;11.30;99.90;;;;;;5060223;28;19933;-58
2022/10/23 06:06:46;;;;;;;;;;;11.30;99.90;;;;;;5059479;28;19932;-59
2022/10/23 06:09:12;;;;;;;;;;;11.30;99.90;;;;;;5060769;28;19990;-59
2022/10/23 06:11:39;;;;;;;;;;;11.20;99.90;;;;;;5060377;28;19967;-58
2022/10/23 06:14:06;;;;;;;;;;;11.30;99.90;;;;;;5059561;28;20477;-59
2022/10/23 06:16:32;;;;;;;;;;;11.30;99.90;;;;;;5059967;28;20495;-58
2022/10/23 06:18:59;;;;;;;;;;;11.30;99.90;;;;;;5059961;28;20603;-58
2022/10/23 06:21:27;;;;;;;;;;;11.30;99.90;;;;;;5058833;28;20457;-58
2022/10/23 06:23:54;;;;;;;;;;;11.30;99.90;;;;;;5059841;28;19929;-58
2022/10/23 06:26:21;;;;;;;;;;;11.30;99.90;;;;;;5059955;28;19971;-58
2022/10/23 06:28:48;;;;;;;;;;;11.30;99.90;;;;;;5059185;28;19972;-58
2022/10/23 06:31:16;;;;;;;;;;;11.30;99.90;;;;;;5059983;28;19928;-58
2022/10/23 06:33:43;;;;;;;;;;;11.30;99.90;;;;;;5059897;28;19937;-58
2022/10/23 06:36:10;;;;;;;;;;;11.30;99.90;;;;;;5058831;28;20063;-58
2022/10/23 06:38:39;;;;;;;;;;;11.30;99.90;;;;;;5059708;28;19996;-58
2022/10/23 06:41:06;;;;;;;;;;;11.30;99.90;;;;;;5059313;28;20318;-58
2022/10/23 06:43:33;;;;;;;;;;;11.30;99.90;;;;;;5059611;28;20417;-58
2022/10/23 06:46:00;;;;;;;;;;;11.30;99.90;;;;;;5059296;28;19933;-58
2022/10/23 06:48:26;;;;;;;;;;;11.30;99.90;;;;;;5059524;28;20094;-58
2022/10/23 06:50:54;;;;;;;;;;;11.30;99.90;;;;;;5058518;28;19929;-58
2022/10/23 06:53:22;;;;;;;;;;;11.30;99.90;;;;;;5059632;28;20410;-58
2022/10/23 06:55:50;;;;;;;;;;;11.40;99.90;;;;;;5059257;28;19932;-58
2022/10/23 06:58:17;;;;;;;;;;;11.40;99.90;;;;;;5058631;28;20935;-58
2022/10/23 07:00:44;;;;;;;;;;;11.40;99.90;;;;;;5059814;28;20505;-58
2022/10/23 07:03:10;;;;;;;;;;;11.40;99.90;;;;;;5059204;28;21880;-58
2022/10/23 07:05:37;;;;;;;;;;;11.50;99.90;;;;;;5059424;28;19939;-58
2022/10/23 07:08:04;;;;;;;;;;;11.50;99.90;;;;;;5059238;28;19940;-58
2022/10/23 07:10:30;;;;;;;;;;;11.50;99.90;;;;;;5059673;28;19936;-58
2022/10/23 07:12:59;;;;;;;;;;;11.50;99.90;;;;;;5058432;28;19929;-58
2022/10/23 07:15:26;;;;;;;;;;;11.60;99.90;;;;;;5060955;28;20016;-58
2022/10/23 07:17:53;;;;;;;;;;;11.60;99.90;;;;;;5062535;28;19929;-58
2022/10/23 07:20:20;;;;;;;;;;;11.60;99.90;;;;;;5061498;28;19952;-58
2022/10/23 07:22:50;;;;;;;;;;;11.70;99.90;;;;;;5063294;28;21760;-58
2022/10/23 07:25:17;;;;;;;;;;;11.70;99.90;;;;;;5060513;28;20479;-58
2022/10/23 07:27:43;;;;;;;;;;;11.70;99.90;;;;;;5062831;28;19928;-58
2022/10/23 07:30:12;;;;;;;;;;;11.80;99.90;;;;;;5062636;28;19928;-58
2022/10/23 07:32:39;;;;;;;;;;;11.80;99.90;;;;;;5062196;28;20236;-59
2022/10/23 07:35:06;;;;;;;;;;;11.80;99.90;;;;;;5061768;28;19963;-58
2022/10/23 07:37:33;;;;;;;;;;;11.80;99.90;;;;;;5061892;28;19928;-58
2022/10/23 07:39:59;;;;;;;;;;;11.90;99.90;;;;;;5061943;28;19929;-58
2022/10/23 07:42:26;;;;;;;;;;;11.90;99.90;;;;;;5062384;28;19934;-58
2022/10/23 07:44:53;;;;;;;;;;;11.90;99.90;;;;;;5061897;28;19933;-58
2022/10/23 07:47:21;;;;;;;;;;;12.00;99.90;;;;;;5062365;28;19938;-58
2022/10/23 07:49:47;;;;;;;;;;;12.00;99.90;;;;;;5061644;28;19933;-59
2022/10/23 07:52:14;;;;;;;;;;;12.00;99.90;;;;;;5061183;28;19935;-58
2022/10/23 07:54:41;;;;;;;;;;;12.00;99.90;;;;;;5061376;28;19939;-58
2022/10/23 07:57:07;;;;;;;;;;;12.00;99.90;;;;;;5061700;28;20770;-58
2022/10/23 07:59:34;;;;;;;;;;;12.10;99.90;;;;;;5061508;28;19928;-58
2022/10/23 08:02:01;;;;;;;;;;;12.10;99.90;;;;;;5061227;28;19943;-58
2022/10/23 08:04:29;;;;;;;;;;;12.10;99.90;;;;;;5061284;28;19933;-58
2022/10/23 08:06:55;;;;;;;;;;;12.20;99.90;;;;;;5060548;28;19928;-58
2022/10/23 08:09:22;;;;;;;;;;;12.20;99.90;;;;;;5060924;28;19929;-58
2022/10/23 08:11:49;;;;;;;;;;;12.20;99.90;;;;;;5060540;28;19936;-58
2022/10/23 08:14:15;;;;;;;;;;;12.30;99.90;;;;;;5060897;28;19933;-58
2022/10/23 08:16:42;;;;;;;;;;;12.30;99.90;;;;;;5061073;28;20402;-58
2022/10/23 08:19:10;;;;;;;;;;;12.30;99.90;;;;;;5060717;28;19935;-58
2022/10/23 08:21:38;;;;;;;;;;;12.30;99.90;;;;;;5060542;28;19936;-58
2022/10/23 08:24:05;;;;;;;;;;;12.40;99.90;;;;;;5061334;28;19933;-58
2022/10/23 08:26:31;;;;;;;;;;;12.40;99.90;;;;;;5061543;28;19929;-58
2022/10/23 08:28:58;;;;;;;;;;;12.40;99.90;;;;;;5060802;28;19928;-58
2022/10/23 08:31:25;;;;;;;;;;;12.50;99.90;;;;;;5060905;28;21236;-58
2022/10/23 08:33:51;;;;;;;;;;;12.50;99.90;;;;;;5059914;28;19933;-58
2022/10/23 08:36:19;;;;;;;;;;;12.50;99.90;;;;;;5059018;28;20354;-58
2022/10/23 08:38:48;;;;;;;;;;;12.50;99.90;;;;;;5060440;28;19929;-58
2022/10/23 08:41:22;;;;;;;;;;;12.60;99.90;;;;;;5060604;28;19928;-58
2022/10/23 08:43:51;;;;;;;;;;;12.60;99.90;;;;;;5060308;28;20014;-59
2022/10/23 08:46:19;;;;;;;;;;;12.50;99.90;;;;;;5059959;28;19929;-58
2022/10/23 08:48:47;;;;;;;;;;;12.70;99.90;;;;;;5060521;28;19928;-59
2022/10/23 08:51:17;;;;;;;;;;;12.70;99.90;;;;;;5060096;28;20497;-58
2022/10/23 08:53:46;;;;;;;;;;;12.70;99.90;;;;;;5060482;28;20591;-58
2022/10/23 08:56:18;;;;;;;;;;;12.80;99.90;;;;;;5060682;28;19929;-58
2022/10/23 08:58:47;;;;;;;;;;;12.80;99.90;;;;;;5060189;28;19936;-58
2022/10/23 09:01:23;;;;;;;;;;;12.90;99.90;;;;;;5060158;28;20048;-58
2022/10/23 09:03:50;;;;;;;;;;;12.90;99.90;;;;;;5059249;28;19944;-58
2022/10/23 09:06:25;;;;;;;;;;;12.90;99.90;;;;;;5059956;28;19954;-58
2022/10/23 09:08:54;;;;;;;;;;;13.00;99.90;;;;;;5060293;28;20337;-58
2022/10/23 09:11:26;;;;;;;;;;;13.00;99.90;;;;;;5060248;28;21835;-58
2022/10/23 09:14:03;;;;;;;;;;;13.10;99.90;;;;;;5059560;28;19939;-58
2022/10/23 09:16:37;;;;;;;;;;;13.10;99.90;;;;;;5059099;28;19935;-58
2022/10/23 09:19:10;;;;;;;;;;;13.20;99.90;;;;;;5060079;28;19928;-58
2022/10/23 09:21:37;;;;;;;;;;;13.20;99.90;;;;;;5059345;28;19939;-58
2022/10/23 09:24:03;;;;;;;;;;;13.30;99.90;;;;;;5060670;28;19933;-58
2022/10/23 09:26:31;;;;;;;;;;;13.30;99.90;;;;;;5058620;28;19929;-58
2022/10/23 09:29:06;;;;;;;;;;;13.30;99.90;;;;;;5059766;28;19935;-60
2022/10/23 09:31:32;;;;;;;;;;;13.40;99.90;;;;;;5059807;28;19950;-58
2022/10/23 09:34:00;;;;;;;;;;;13.40;99.90;;;;;;5059859;28;20679;-58
2022/10/23 09:36:28;;;;;;;;;;;13.40;99.90;;;;;;5059648;28;19928;-58
2022/10/23 09:38:55;;;;;;;;;;;13.50;99.90;;;;;;5060753;28;19928;-58
2022/10/23 09:41:23;;;;;;;;;;;13.50;99.90;;;;;;5059606;28;19936;-59
2022/10/23 09:44:01;;;;;;;;;;;13.60;99.90;;;;;;5060104;28;19939;-58
2022/10/23 09:46:37;;;;;;;;;;;13.60;99.90;;;;;;5060313;28;19943;-58
2022/10/23 09:49:03;;;;;;;;;;;13.60;99.90;;;;;;5059848;28;19935;-58
2022/10/23 09:51:30;;;;;;;;;;;13.70;99.90;;;;;;5060113;28;19933;-59
2022/10/23 09:53:58;;;;;;;;;;;13.70;99.90;;;;;;5059492;28;19932;-58
2022/10/23 09:56:26;;;;;;;;;;;13.80;99.90;;;;;;5059537;28;19935;-58
2022/10/23 09:58:54;;;;;;;;;;;13.80;99.90;;;;;;5060098;28;19940;-58
2022/10/23 10:01:25;;;;;;;;;;;13.80;99.90;;;;;;5059729;28;19935;-58
2022/10/23 10:03:52;;;;;;;;;;;13.90;99.90;;;;;;5059395;28;20452;-58
2022/10/23 10:06:22;;;;;;;;;;;13.90;99.90;;;;;;5059961;28;19935;-59
2022/10/23 10:08:50;;;;;;;;;;;13.90;99.90;;;;;;5055865;28;19997;-58
2022/10/23 10:11:19;;;;;;;;;;;14.00;99.90;;;;;;5059769;28;19934;-58
2022/10/23 10:13:56;;;;;;;;;;;14.00;99.90;;;;;;5058822;28;19933;-58
2022/10/23 10:16:29;;;;;;;;;;;14.10;99.90;;;;;;5059775;28;19928;-58
2022/10/23 10:19:02;;;;;;;;;;;14.10;99.90;;;;;;5059426;28;20469;-58
2022/10/23 10:21:31;;;;;;;;;;;14.20;99.90;;;;;;5057900;28;19928;-58
2022/10/23 10:24:02;;;;;;;;;;;14.20;99.90;;;;;;5059540;28;19955;-59
2022/10/23 10:26:33;;;;;;;;;;;14.20;99.90;;;;;;5059708;28;19928;-59
2022/10/23 10:29:05;;;;;;;;;;;14.30;99.90;;;;;;5059426;28;20299;-58
2022/10/23 10:31:39;;;;;;;;;;;14.30;99.90;;;;;;5058981;28;19928;-58
2022/10/23 10:34:11;;;;;;;;;;;14.40;99.90;;;;;;5059673;28;19932;-59
2022/10/23 10:36:42;;;;;;;;;;;14.40;99.90;;;;;;5059060;28;19935;-59
2022/10/23 10:39:12;;;;;;;;;;;14.50;99.90;;;;;;5059482;28;19929;-59
2022/10/23 10:41:44;;;;;;;;;;;14.50;99.90;;;;;;5059091;28;19936;-59
2022/10/23 10:44:25;;;;;;;;;;;14.50;99.90;;;;;;5058641;28;20337;-59
2022/10/23 10:46:56;;;;;;;;;;;14.60;99.90;;;;;;5013631;28;19929;-59
2022/10/23 10:49:26;;;;;;;;;;;14.60;99.90;;;;;;5061165;28;20304;-59
2022/10/23 10:51:59;;;;;;;;;;;14.70;99.90;;;;;;5062209;28;19929;-60
2022/10/23 10:54:35;;;;;;;;;;;14.70;99.90;;;;;;5062696;28;20034;-59
2022/10/23 10:57:04;;;;;;;;;;;14.70;99.90;;;;;;5062329;28;20979;-59
2022/10/23 10:59:33;;;;;;;;;;;14.80;99.90;;;;;;5061777;28;20734;-59
2022/10/23 11:02:05;;;;;;;;;;;14.80;99.90;;;;;;5061960;28;20451;-59
2022/10/23 11:04:34;;;;;;;;;;;14.80;99.90;;;;;;5061258;28;19932;-59
2022/10/23 11:07:02;;;;;;;;;;;14.80;99.90;;;;;;5062055;28;19935;-59
2022/10/23 11:09:29;;;;;;;;;;;14.90;99.90;;;;;;5062502;28;19929;-59
2022/10/23 11:11:56;;;;;;;;;;;14.90;99.90;;;;;;5062017;28;19928;-59
2022/10/23 11:14:24;;;;;;;;;;;14.90;99.90;;;;;;5061188;28;19933;-59
2022/10/23 11:16:52;;;;;;;;;;;15.00;99.90;;;;;;5062161;28;19928;-59
2022/10/23 11:19:24;;;;;;;;;;;15.00;99.90;;;;;;5060314;28;20405;-59
2022/10/23 11:21:54;;;;;;;;;;;15.00;99.90;;;;;;5062059;28;19929;-59
2022/10/23 11:24:30;;;;;;;;;;;15.10;99.90;;;;;;5062372;28;19937;-59
2022/10/23 11:27:06;;;;;;;;;;;15.10;99.90;;;;;;5061792;28;19928;-59
2022/10/23 11:29:41;;;;;;;;;;;15.10;99.90;;;;;;5061882;28;19928;-60
2022/10/23 11:32:20;;;;;;;;;;;15.10;99.90;;;;;;5061078;28;19971;-58
2022/10/23 11:35:03;;;;;;;;;;;15.10;99.90;;;;;;5061742;28;19933;-59
2022/10/23 11:37:30;;;;;;;;;;;15.10;99.90;;;;;;5061577;28;20018;-59
2022/10/23 11:39:59;;;;;;;;;;;15.20;99.90;;;;;;5061042;28;19937;-60
2022/10/23 11:42:31;;;;;;;;;;;15.20;99.90;;;;;;5062071;28;19935;-59
2022/10/23 11:44:58;;;;;;;;;;;15.10;99.90;;;;;;5061528;28;20375;-59
2022/10/23 11:47:26;;;;;;;;;;;15.20;99.90;;;;;;5060602;28;19928;-59
2022/10/23 11:50:08;;;;;;;;;;;15.20;99.90;;;;;;5061334;28;19935;-59
2022/10/23 11:52:37;;;;;;;;;;;15.20;99.90;;;;;;5061474;28;19932;-59
2022/10/23 11:55:04;;;;;;;;;;;15.20;99.90;;;;;;5061012;28;21004;-59
2022/10/23 11:57:31;;;;;;;;;;;15.20;99.90;;;;;;5061594;28;19929;-59
2022/10/23 11:59:58;;;;;;;;;;;15.20;99.90;;;;;;5059956;28;20357;-59
2022/10/23 12:02:30;;;;;;;;;;;15.20;99.90;;;;;;5061520;28;19936;-60
2022/10/23 12:04:58;;;;;;;;;;;15.20;99.90;;;;;;5061055;28;20058;-59
2022/10/23 12:07:27;;;;;;;;;;;15.10;99.90;;;;;;5061508;28;19939;-59
2022/10/23 12:09:56;;;;;;;;;;;15.10;99.90;;;;;;5060912;28;21768;-59
2022/10/23 12:12:28;;;;;;;;;;;15.10;99.90;;;;;;5061495;28;19942;-59
2022/10/23 12:15:06;;;;;;;;;;;15.10;99.90;;;;;;5060249;28;19940;-59
2022/10/23 12:17:35;;;;;;;;;;;15.10;99.90;;;;;;5060954;28;19928;-59
2022/10/23 12:20:12;;;;;;;;;;;15.20;99.90;;;;;;5060765;28;20406;-59
2022/10/23 12:22:41;;;;;;;;;;;15.20;99.90;;;;;;5059434;28;19928;-60
2022/10/23 12:25:13;;;;;;;;;;;15.20;99.90;;;;;;5060632;28;19942;-59
2022/10/23 12:27:41;;;;;;;;;;;15.20;99.90;;;;;;5059658;28;19976;-59
2022/10/23 12:30:15;;;;;;;;;;;15.20;99.90;;;;;;5060143;28;19928;-59
2022/10/23 12:32:59;;;;;;;;;;;15.10;99.90;;;;;;5060367;28;19929;-58
2022/10/23 12:35:51;;;;;;;;;;;15.10;99.90;;;;;;5049985;28;20418;-59
2022/10/23 12:38:19;;;;;;;;;;;15.20;99.90;;;;;;5060225;28;19928;-59
2022/10/23 12:40:50;;;;;;;;;;;15.20;99.90;;;;;;5061607;28;19928;-59
2022/10/23 12:43:21;;;;;;;;;;;15.20;99.90;;;;;;5060811;28;19935;-60
2022/10/23 12:45:49;;;;;;;;;;;15.20;99.90;;;;;;5060509;28;19933;-59
2022/10/23 12:48:18;;;;;;;;;;;15.20;99.90;;;;;;5060462;28;19929;-59
2022/10/23 12:50:49;;;;;;;;;;;15.20;99.90;;;;;;5060617;28;20004;-59
2022/10/23 12:53:17;;;;;;;;;;;15.30;99.90;;;;;;5059904;28;20062;-59
2022/10/23 12:55:49;;;;;;;;;;;15.30;99.90;;;;;;5061076;28;19954;-59
2022/10/23 12:58:19;;;;;;;;;;;15.30;99.90;;;;;;5060270;28;19928;-59
2022/10/23 13:00:50;;;;;;;;;;;15.30;99.90;;;;;;5061052;28;19936;-59
2022/10/23 13:03:16;;;;;;;;;;;15.30;99.90;;;;;;5060515;28;19929;-59
2022/10/23 13:05:43;;;;;;;;;;;15.40;99.90;;;;;;5061249;28;19932;-59
2022/10/23 13:08:11;;;;;;;;;;;15.40;99.90;;;;;;5060647;28;19939;-59
2022/10/23 13:10:37;;;;;;;;;;;15.40;99.90;;;;;;5060527;28;19928;-59
2022/10/23 13:13:06;;;;;;;;;;;15.40;99.90;;;;;;5059546;28;20035;-59
2022/10/23 13:15:37;;;;;;;;;;;15.40;99.90;;;;;;5059675;28;20413;-59
2022/10/23 13:18:05;;;;;;;;;;;15.40;99.90;;;;;;5060237;28;19928;-59
2022/10/23 13:20:34;;;;;;;;;;;15.40;99.90;;;;;;5060236;28;20047;-59
2022/10/23 13:23:08;;;;;;;;;;;15.40;99.90;;;;;;5062361;28;19932;-59
2022/10/23 13:25:35;;;;;;;;;;;15.40;99.90;;;;;;5060396;28;20533;-59
2022/10/23 13:28:04;;;;;;;;;;;15.50;99.90;;;;;;5060132;28;19929;-59
2022/10/23 13:30:33;;;;;;;;;;;15.50;99.90;;;;;;5059252;28;19945;-59
2022/10/23 13:33:13;;;;;;;;;;;15.50;99.90;;;;;;5059466;28;19928;-59
2022/10/23 13:35:39;;;;;;;;;;;15.50;99.90;;;;;;5059830;28;20564;-59
2022/10/23 13:38:09;;;;;;;;;;;15.50;99.90;;;;;;5060369;28;19929;-60
2022/10/23 13:40:36;;;;;;;;;;;15.50;99.90;;;;;;5060620;28;19929;-60
2022/10/23 13:43:03;;;;;;;;;;;15.50;99.90;;;;;;5059498;28;19936;-59
2022/10/23 13:45:29;;;;;;;;;;;15.50;99.90;;;;;;5059693;28;20047;-59
2022/10/23 13:47:57;;;;;;;;;;;15.50;99.90;;;;;;5058617;28;21737;-59
2022/10/23 13:50:24;;;;;;;;;;;15.50;99.90;;;;;;5058756;28;19939;-59
2022/10/23 13:52:51;;;;;;;;;;;15.50;99.90;;;;;;5059513;28;19928;-59
2022/10/23 13:55:19;;;;;;;;;;;15.50;99.90;;;;;;5059945;28;19955;-59
2022/10/23 13:57:47;;;;;;;;;;;15.50;99.90;;;;;;5058427;28;19936;-59
2022/10/23 14:00:14;;;;;;;;;;;15.50;99.90;;;;;;5053784;28;19928;-59
2022/10/23 14:02:41;;;;;;;;;;;15.50;99.90;;;;;;5057986;28;19941;-58
2022/10/23 14:05:09;;;;;;;;;;;15.50;99.90;;;;;;5057920;28;19944;-59
2022/10/23 14:07:36;;;;;;;;;;;15.40;99.90;;;;;;5059248;28;19929;-59
2022/10/23 14:10:04;;;;;;;;;;;15.40;99.90;;;;;;5058420;28;19929;-59
2022/10/23 14:12:30;;;;;;;;;;;15.40;99.90;;;;;;5046510;28;19929;-59
2022/10/23 14:14:57;;;;;;;;;;;15.40;99.90;;;;;;5050581;28;19939;-59
2022/10/23 14:17:23;;;;;;;;;;;15.40;99.90;;;;;;5049889;28;19928;-59
2022/10/23 14:19:50;;;;;;;;;;;15.40;99.90;;;;;;5050264;28;19934;-59
2022/10/23 14:22:18;;;;;;;;;;;15.40;99.90;;;;;;5051788;28;20518;-58
2022/10/23 14:24:45;;;;;;;;;;;15.40;99.90;;;;;;5051360;28;19940;-59